createdAt,value
2022-12-26T00:00:26.924Z,5.91
2022-12-26T00:04:52.097Z,5.93
2022-12-26T00:08:01.004Z,5.96
2022-12-26T00:11:29.037Z,5.98
2022-12-26T00:14:56.132Z,5.99
2022-12-26T00:18:23.321Z,6.01
2022-12-26T00:21:50.474Z,6.04
2022-12-26T00:25:17.628Z,6.06
2022-12-26T00:28:45.572Z,6.08
2022-12-26T00:32:12.456Z,6.11
2022-12-26T00:35:39.270Z,6.15
2022-12-26T00:39:06.913Z,6.19
2022-12-26T00:42:33.721Z,6.24
2022-12-26T00:46:00.913Z,6.31
2022-12-26T00:49:28.576Z,6.37
2022-12-26T00:53:16.031Z,6.41
2022-12-26T00:56:42.947Z,6.43
2022-12-26T01:00:12.019Z,6.44
2022-12-26T01:03:39.881Z,6.46
2022-12-26T01:07:07.316Z,6.48
2022-12-26T01:10:34.192Z,6.51
2022-12-26T01:14:01.136Z,6.54
2022-12-26T01:17:29.132Z,6.56
2022-12-26T01:21:01.171Z,6.60
2022-12-26T01:24:28.224Z,6.64
2022-12-26T01:27:55.136Z,6.67
2022-12-26T01:31:23.712Z,6.70
2022-12-26T01:34:52.483Z,6.71
2022-12-26T01:38:20.089Z,6.73
2022-12-26T01:41:47.264Z,6.74
2022-12-26T01:45:27.516Z,6.74
2022-12-26T01:48:56.687Z,6.74
2022-12-26T01:52:31.336Z,6.74
2022-12-26T01:56:08.771Z,6.74
2022-12-26T01:59:39.364Z,6.75
2022-12-26T02:03:25.738Z,6.77
2022-12-26T02:06:53.065Z,6.80
2022-12-26T02:10:25.755Z,6.83
2022-12-26T02:13:52.921Z,6.86
2022-12-26T02:17:20.122Z,6.88
2022-12-26T02:20:58.812Z,6.90
2022-12-26T02:25:05.214Z,6.92
2022-12-26T02:29:02.173Z,6.94
2022-12-26T02:32:53.781Z,6.98
2022-12-26T02:36:39.285Z,7.02
2022-12-26T02:40:27.707Z,7.05
2022-12-26T02:44:23.944Z,7.09
2022-12-26T02:47:59.520Z,7.14
2022-12-26T02:51:58.288Z,7.17
2022-12-26T02:55:47.410Z,7.18
2022-12-26T02:59:55.843Z,7.17
2022-12-26T03:03:46.185Z,7.17
2022-12-26T03:07:36.527Z,7.18
2022-12-26T03:11:21.086Z,7.18
2022-12-26T03:14:52.579Z,7.19
2022-12-26T03:18:57.705Z,7.21
2022-12-26T03:22:30.726Z,7.23
2022-12-26T03:26:17.883Z,7.26
2022-12-26T03:30:03.157Z,7.28
2022-12-26T03:33:50.615Z,7.28
2022-12-26T03:37:48.392Z,7.28
2022-12-26T03:41:37.193Z,7.27
2022-12-26T03:45:31.614Z,7.26
2022-12-26T03:49:25.015Z,7.26
2022-12-26T03:53:18.127Z,7.25
2022-12-26T03:57:08.823Z,7.26
2022-12-26T04:00:55.336Z,7.25
2022-12-26T04:04:43.704Z,7.25
2022-12-26T04:08:53.098Z,7.25
2022-12-26T04:12:41.477Z,7.25
2022-12-26T04:16:34.656Z,7.24
2022-12-26T04:20:16.056Z,7.24
2022-12-26T04:24:06.677Z,7.23
2022-12-26T04:27:52.830Z,7.22
2022-12-26T04:31:44.346Z,7.22
2022-12-26T04:35:35.818Z,7.21
2022-12-26T04:39:23.312Z,7.22
2022-12-26T04:43:46.798Z,7.21
2022-12-26T04:46:57.452Z,7.20
2022-12-26T04:50:24.914Z,7.20
2022-12-26T04:53:51.785Z,7.20
2022-12-26T04:57:18.647Z,7.20
2022-12-26T05:00:45.776Z,7.21
2022-12-26T05:04:33.573Z,7.23
2022-12-26T05:08:19.315Z,7.25
2022-12-26T05:11:47.296Z,7.27
2022-12-26T05:15:15.023Z,7.30
2022-12-26T05:18:59.742Z,7.34
2022-12-26T05:22:46.438Z,7.40
2022-12-26T05:26:37.515Z,7.45
2022-12-26T05:30:04.837Z,7.51
2022-12-26T05:33:49.911Z,7.57
2022-12-26T05:37:16.880Z,7.63
2022-12-26T05:40:44.139Z,7.67
2022-12-26T05:44:11.845Z,7.69
2022-12-26T05:47:39.368Z,7.71
2022-12-26T05:51:07.417Z,7.73
2022-12-26T05:54:34.384Z,7.74
2022-12-26T05:58:02.512Z,7.76
2022-12-26T06:01:31.183Z,7.78
2022-12-26T06:04:58.381Z,7.79
2022-12-26T06:08:25.434Z,7.81
2022-12-26T06:11:52.660Z,7.84
2022-12-26T06:15:20.140Z,7.85
2022-12-26T06:18:48.328Z,7.87
2022-12-26T06:22:15.404Z,7.89
2022-12-26T06:25:43.289Z,7.91
2022-12-26T06:29:10.682Z,7.91
2022-12-26T06:32:38.144Z,7.89
2022-12-26T06:36:12.076Z,7.86
2022-12-26T06:39:39.536Z,7.82
2022-12-26T06:43:06.412Z,7.79
2022-12-26T06:46:33.674Z,7.75
2022-12-26T06:50:00.564Z,7.70
2022-12-26T06:53:27.840Z,7.65
2022-12-26T06:56:54.787Z,7.61
2022-12-26T07:00:22.353Z,7.56
2022-12-26T07:03:51.994Z,7.53
2022-12-26T07:07:19.231Z,7.52
2022-12-26T07:10:46.296Z,7.52
2022-12-26T07:14:13.369Z,7.53
2022-12-26T07:17:40.407Z,7.56
2022-12-26T07:21:10.072Z,7.60
2022-12-26T07:24:37.401Z,7.66
2022-12-26T07:28:04.244Z,7.73
2022-12-26T07:31:31.232Z,7.79
2022-12-26T07:34:58.329Z,7.84
2022-12-26T07:38:25.292Z,7.88
2022-12-26T07:42:01.463Z,7.91
2022-12-26T07:45:28.540Z,7.96
2022-12-26T07:48:56.639Z,8.02
2022-12-26T07:52:24.063Z,8.06
2022-12-26T07:55:51.205Z,8.10
2022-12-26T07:59:19.289Z,8.13
2022-12-26T08:02:46.333Z,8.14
2022-12-26T08:06:13.975Z,8.15
2022-12-26T08:09:43.101Z,8.16
2022-12-26T08:13:10.297Z,8.20
2022-12-26T08:16:37.346Z,8.27
2022-12-26T08:20:04.496Z,8.36
2022-12-26T08:23:31.637Z,8.47
2022-12-26T08:26:58.660Z,8.58
2022-12-26T08:30:25.979Z,8.68
2022-12-26T08:33:55.737Z,8.78
2022-12-26T08:37:24.215Z,8.90
2022-12-26T08:40:57.264Z,9.03
2022-12-26T08:44:27.512Z,9.17
2022-12-26T08:47:56.793Z,9.35
2022-12-26T08:51:26.778Z,9.52
2022-12-26T08:54:53.720Z,9.67
2022-12-26T08:58:20.878Z,9.76
2022-12-26T09:01:48.289Z,9.77
2022-12-26T09:05:15.481Z,9.75
2022-12-26T09:08:43.462Z,9.70
2022-12-26T09:12:10.461Z,9.70
2022-12-26T09:15:37.355Z,9.74
2022-12-26T09:19:05.344Z,9.76
2022-12-26T09:22:50.096Z,9.80
2022-12-26T09:26:20.032Z,9.87
2022-12-26T09:29:47.210Z,9.96
2022-12-26T09:33:14.035Z,10.05
2022-12-26T09:36:41.409Z,10.16
2022-12-26T09:40:25.454Z,10.27
2022-12-26T09:44:06.887Z,10.37
2022-12-26T09:47:36.124Z,10.54
2022-12-26T09:51:04.326Z,10.71
2022-12-26T09:54:34.738Z,10.80
2022-12-26T09:58:06.233Z,10.91
2022-12-26T10:01:37.730Z,11.03
2022-12-26T10:05:06.726Z,11.16
2022-12-26T10:08:51.139Z,11.30
2022-12-26T10:12:32.970Z,11.36
2022-12-26T10:16:06.132Z,11.36
2022-12-26T10:19:45.820Z,11.35
2022-12-26T10:23:28.631Z,11.32
2022-12-26T10:27:01.934Z,11.31
2022-12-26T10:30:36.608Z,11.34
2022-12-26T10:34:15.282Z,11.42
2022-12-26T10:37:43.421Z,11.51
2022-12-26T10:41:19.745Z,11.55
2022-12-26T10:44:46.596Z,11.57
2022-12-26T10:48:16.236Z,11.57
2022-12-26T10:51:43.159Z,11.56
2022-12-26T10:55:27.996Z,11.54
2022-12-26T10:59:04.593Z,11.54
2022-12-26T11:02:33.393Z,11.56
2022-12-26T11:06:08.919Z,11.54
2022-12-26T11:09:43.238Z,11.51
2022-12-26T11:13:20.115Z,11.48
2022-12-26T11:16:51.511Z,11.44
2022-12-26T11:20:31.807Z,11.42
2022-12-26T11:24:20.726Z,11.39
2022-12-26T11:27:50.139Z,11.31
2022-12-26T11:31:25.348Z,11.24
2022-12-26T11:34:52.582Z,11.15
2022-12-26T11:38:42.735Z,11.10
2022-12-26T11:42:19.447Z,11.07
2022-12-26T11:45:50.633Z,11.05
2022-12-26T11:49:29.988Z,11.05
2022-12-26T11:53:08.152Z,11.10
2022-12-26T11:56:35.116Z,11.17
2022-12-26T12:00:19.697Z,11.22
2022-12-26T12:03:50.102Z,11.24
2022-12-26T12:07:30.138Z,11.24
2022-12-26T12:11:16.288Z,11.22
2022-12-26T12:14:56.437Z,11.18
2022-12-26T12:18:39.061Z,11.15
2022-12-26T12:22:24.037Z,11.09
2022-12-26T12:26:01.760Z,11.03
2022-12-26T12:29:40.854Z,10.97
2022-12-26T12:33:24.922Z,10.94
2022-12-26T12:37:03.215Z,10.91
2022-12-26T12:40:38.968Z,10.88
2022-12-26T12:44:13.072Z,10.83
2022-12-26T12:47:51.940Z,10.78
2022-12-26T12:51:29.783Z,10.71
2022-12-26T12:55:30.315Z,10.65
2022-12-26T12:59:03.476Z,10.59
2022-12-26T13:02:37.674Z,10.53
2022-12-26T13:06:11.153Z,10.50
2022-12-26T13:09:44.216Z,10.49
2022-12-26T13:13:27.475Z,10.49
2022-12-26T13:16:57.178Z,10.48
2022-12-26T13:20:24.969Z,10.49
2022-12-26T13:24:14.469Z,10.49
2022-12-26T13:27:42.241Z,10.49
2022-12-26T13:31:10.124Z,10.48
2022-12-26T13:34:37.337Z,10.47
2022-12-26T13:38:04.296Z,10.46
2022-12-26T13:41:50.084Z,10.43
2022-12-26T13:45:51.079Z,10.39
2022-12-26T13:49:36.140Z,10.36
2022-12-26T13:53:04.053Z,10.32
2022-12-26T13:57:03.794Z,10.27
2022-12-26T14:00:42.214Z,10.22
2022-12-26T14:04:28.729Z,10.15
2022-12-26T14:08:01.603Z,10.11
2022-12-26T14:11:47.573Z,10.09
2022-12-26T14:15:28.325Z,10.07
2022-12-26T14:19:03.483Z,10.06
2022-12-26T14:22:39.769Z,10.06
2022-12-26T14:26:19.049Z,10.02
2022-12-26T14:29:51.945Z,9.98
2022-12-26T14:33:30.177Z,9.95
2022-12-26T14:37:04.736Z,9.92
2022-12-26T14:40:34.808Z,9.89
2022-12-26T14:44:16.588Z,9.84
2022-12-26T14:47:46.867Z,9.79
2022-12-26T14:51:41.864Z,9.74
2022-12-26T14:55:39.392Z,9.69
2022-12-26T14:59:27.782Z,9.64
2022-12-26T15:03:26.485Z,9.59
2022-12-26T15:07:24.576Z,9.57
2022-12-26T15:11:24.786Z,9.55
2022-12-26T15:15:19.828Z,9.53
2022-12-26T15:19:18.408Z,9.52
2022-12-26T15:23:22.347Z,9.49
2022-12-26T15:27:25.363Z,9.47
2022-12-26T15:31:11.528Z,9.45
2022-12-26T15:34:51.324Z,9.41
2022-12-26T15:38:27.237Z,9.37
2022-12-26T15:42:05.937Z,9.35
2022-12-26T15:45:46.331Z,9.31
2022-12-26T15:49:36.760Z,9.30
2022-12-26T15:53:15.084Z,9.27
2022-12-26T15:56:56.355Z,9.25
2022-12-26T16:00:27.195Z,9.22
2022-12-26T16:03:57.970Z,9.17
2022-12-26T16:07:36.652Z,9.13
2022-12-26T16:11:19.340Z,9.06
2022-12-26T16:14:47.388Z,9.02
2022-12-26T16:18:18.994Z,8.98
2022-12-26T16:22:08.068Z,8.94
2022-12-26T16:25:38.067Z,8.85
2022-12-26T16:29:06.205Z,8.82
2022-12-26T16:32:36.749Z,8.80
2022-12-26T16:36:03.917Z,8.78
2022-12-26T16:39:31.186Z,8.77
2022-12-26T16:43:01.497Z,8.78
2022-12-26T16:46:31.118Z,8.79
2022-12-26T16:49:59.239Z,8.80
2022-12-26T16:53:42.562Z,8.81
2022-12-26T16:57:14.513Z,8.82
2022-12-26T17:00:46.419Z,8.84
2022-12-26T17:04:22.918Z,8.85
2022-12-26T17:07:53.111Z,8.87
2022-12-26T17:11:27.890Z,8.87
2022-12-26T17:14:57.135Z,8.86
2022-12-26T17:18:50.906Z,8.85
2022-12-26T17:22:33.067Z,8.84
2022-12-26T17:26:20.082Z,8.84
2022-12-26T17:30:20.590Z,8.81
2022-12-26T17:33:48.861Z,8.76
2022-12-26T17:37:23.024Z,8.68
2022-12-26T17:40:53.307Z,8.57
2022-12-26T17:44:43.972Z,8.46
2022-12-26T17:48:12.912Z,8.36
2022-12-26T17:51:39.880Z,8.27
2022-12-26T17:55:15.127Z,8.19
2022-12-26T17:58:42.315Z,8.12
2022-12-26T18:02:10.277Z,8.06
2022-12-26T18:05:38.423Z,8.00
2022-12-26T18:09:05.240Z,7.92
2022-12-26T18:12:32.238Z,7.85
2022-12-26T18:16:00.167Z,7.81
2022-12-26T18:19:27.332Z,7.79
2022-12-26T18:22:54.685Z,7.78
2022-12-26T18:26:28.683Z,7.78
2022-12-26T18:29:55.627Z,7.80
2022-12-26T18:33:22.517Z,7.81
2022-12-26T18:36:49.805Z,7.81
2022-12-26T18:40:29.599Z,7.81
2022-12-26T18:43:54.919Z,7.81
2022-12-26T18:47:24.019Z,7.82
2022-12-26T18:50:50.945Z,7.83
2022-12-26T18:54:19.107Z,7.85
2022-12-26T18:57:45.983Z,7.87
2022-12-26T19:01:16.365Z,7.88
2022-12-26T19:04:43.317Z,7.88
2022-12-26T19:08:12.141Z,7.90
2022-12-26T19:11:39.250Z,7.91
2022-12-26T19:15:07.301Z,7.90
2022-12-26T19:18:34.606Z,7.91
2022-12-26T19:22:01.441Z,7.92
2022-12-26T19:25:28.784Z,7.93
2022-12-26T19:28:56.982Z,7.91
2022-12-26T19:32:24.066Z,7.91
2022-12-26T19:35:57.903Z,7.90
2022-12-26T19:39:25.027Z,7.90
2022-12-26T19:42:51.996Z,7.89
2022-12-26T19:46:19.407Z,7.90
2022-12-26T19:49:46.968Z,7.90
2022-12-26T19:53:13.796Z,7.90
2022-12-26T19:56:41.130Z,7.90
2022-12-26T20:00:11.320Z,7.91
2022-12-26T20:03:41.517Z,7.92
2022-12-26T20:07:08.434Z,7.93
2022-12-26T20:10:36.463Z,7.93
2022-12-26T20:14:06.451Z,7.92
2022-12-26T20:17:33.606Z,7.91
2022-12-26T20:21:00.476Z,7.91
2022-12-26T20:24:27.558Z,7.91
2022-12-26T20:27:54.437Z,7.90
2022-12-26T20:31:22.610Z,7.88
2022-12-26T20:34:49.612Z,7.86
2022-12-26T20:38:16.568Z,7.83
2022-12-26T20:41:43.781Z,7.80
2022-12-26T20:45:12.392Z,7.76
2022-12-26T20:48:39.563Z,7.77
2022-12-26T20:52:07.466Z,7.79
2022-12-26T20:55:36.527Z,7.83
2022-12-26T20:59:03.660Z,7.86
2022-12-26T21:02:30.757Z,7.88
2022-12-26T21:06:06.263Z,7.89
2022-12-26T21:09:33.186Z,7.91
2022-12-26T21:13:00.120Z,7.90
2022-12-26T21:16:29.603Z,7.89
2022-12-26T21:19:56.553Z,7.84
2022-12-26T21:23:23.442Z,7.78
2022-12-26T21:26:51.132Z,7.72
2022-12-26T21:30:18.894Z,7.66
2022-12-26T21:33:45.831Z,7.63
2022-12-26T21:37:38.752Z,7.60
2022-12-26T21:41:07.265Z,7.60
2022-12-26T21:44:34.264Z,7.62
2022-12-26T21:48:01.161Z,7.65
2022-12-26T21:51:28.850Z,7.66
2022-12-26T21:55:13.313Z,7.66
2022-12-26T21:58:54.847Z,7.66
2022-12-26T22:02:39.851Z,7.65
2022-12-26T22:06:15.294Z,7.64
2022-12-26T22:09:42.198Z,7.65
2022-12-26T22:13:10.027Z,7.65
2022-12-26T22:16:37.011Z,7.65
2022-12-26T22:20:03.932Z,7.65
2022-12-26T22:23:31.059Z,7.66
2022-12-26T22:26:57.961Z,7.67
2022-12-26T22:30:24.934Z,7.67
2022-12-26T22:33:57.127Z,7.67
2022-12-26T22:37:24.135Z,7.67
2022-12-26T22:41:01.364Z,7.68
2022-12-26T22:44:28.423Z,7.70
2022-12-26T22:47:55.317Z,7.70
2022-12-26T22:51:25.349Z,7.70
2022-12-26T22:54:53.205Z,7.70
2022-12-26T22:58:20.473Z,7.68
2022-12-26T23:01:47.421Z,7.66
2022-12-26T23:05:16.526Z,7.64
2022-12-26T23:08:44.517Z,7.63
2022-12-26T23:12:31.098Z,7.62
2022-12-26T23:16:04.326Z,7.60
2022-12-26T23:20:02.012Z,7.58
2022-12-26T23:23:30.065Z,7.54
2022-12-26T23:27:20.383Z,7.52
2022-12-26T23:30:47.467Z,7.42
2022-12-26T23:34:15.023Z,7.24
2022-12-26T23:37:42.893Z,7.09
2022-12-26T23:41:09.749Z,6.98
2022-12-26T23:44:36.625Z,6.87
2022-12-26T23:48:03.556Z,6.78
2022-12-26T23:51:30.715Z,6.68
2022-12-26T23:54:57.893Z,6.58
2022-12-26T23:58:24.916Z,6.50
